createdAt,value
2018-12-24T00:00:13.367Z,5.81
2018-12-24T00:01:23.341Z,5.84
2018-12-24T00:02:33.306Z,5.77
2018-12-24T00:03:43.248Z,5.76
2018-12-24T00:04:53.195Z,5.79
2018-12-24T00:06:02.900Z,5.8
2018-12-24T00:07:12.856Z,5.74
2018-12-24T00:08:22.294Z,5.77
2018-12-24T00:09:31.993Z,5.76
2018-12-24T00:10:41.949Z,5.8
2018-12-24T00:11:51.388Z,5.74
2018-12-24T00:13:00.881Z,5.84
2018-12-24T00:14:10.825Z,5.74
2018-12-24T00:15:20.771Z,5.73
2018-12-24T00:16:30.449Z,5.67
2018-12-24T00:17:39.892Z,5.76
2018-12-24T00:18:49.593Z,5.79
2018-12-24T00:19:59.531Z,5.76
2018-12-24T00:21:08.999Z,5.74
2018-12-24T00:22:18.950Z,5.74
2018-12-24T00:23:28.897Z,5.72
2018-12-24T00:24:38.851Z,5.74
2018-12-24T00:25:48.810Z,5.72
2018-12-24T00:26:58.507Z,5.69
2018-12-24T00:28:08.443Z,5.79
2018-12-24T00:29:18.127Z,5.74
2018-12-24T00:30:28.073Z,5.7
2018-12-24T00:31:38.009Z,5.77
2018-12-24T00:32:48.153Z,5.79
2018-12-24T00:33:58.111Z,5.79
2018-12-24T00:35:07.795Z,5.76
2018-12-24T00:36:17.746Z,5.74
2018-12-24T00:37:27.693Z,5.79
2018-12-24T00:38:37.641Z,5.73
2018-12-24T00:39:47.327Z,5.74
2018-12-24T00:40:56.766Z,5.74
2018-12-24T00:42:06.560Z,5.69
2018-12-24T00:43:23.253Z,5.65
2018-12-24T00:44:33.555Z,5.79
2018-12-24T00:45:43.507Z,5.73
2018-12-24T00:46:53.223Z,5.73
2018-12-24T00:48:02.917Z,5.64
2018-12-24T00:49:14.669Z,5.56
2018-12-24T00:50:24.620Z,5.55
2018-12-24T00:51:34.323Z,5.36
2018-12-24T00:52:43.876Z,5.43
2018-12-24T00:53:53.569Z,5.28
2018-12-24T00:55:03.517Z,5.16
2018-12-24T00:56:13.469Z,5.19
2018-12-24T00:57:25.289Z,5.05
2018-12-24T00:58:34.984Z,5.04
2018-12-24T00:59:44.693Z,4.98
2018-12-24T01:00:54.645Z,5.02
2018-12-24T01:02:04.323Z,4.92
2018-12-24T01:03:14.018Z,4.83
2018-12-24T01:04:23.726Z,4.68
2018-12-24T01:05:33.439Z,4.71
2018-12-24T01:06:43.183Z,4.71
2018-12-24T01:07:53.123Z,4.64
2018-12-24T01:09:02.837Z,4.53
2018-12-24T01:10:12.805Z,4.5
2018-12-24T01:11:22.753Z,4.52
2018-12-24T01:12:32.696Z,4.39
2018-12-24T01:13:42.156Z,4.42
2018-12-24T01:14:52.110Z,4.43
2018-12-24T01:16:02.130Z,4.34
2018-12-24T01:17:11.561Z,4.39
2018-12-24T01:18:21.501Z,4.3
2018-12-24T01:19:31.202Z,4.34
2018-12-24T01:20:41.137Z,4.36
2018-12-24T01:21:50.818Z,4.38
2018-12-24T01:23:00.771Z,4.34
2018-12-24T01:24:10.725Z,4.28
2018-12-24T01:25:20.661Z,4.24
2018-12-24T01:26:30.353Z,4.21
2018-12-24T01:27:40.360Z,4.25
2018-12-24T01:28:50.307Z,4.27
2018-12-24T01:30:00.004Z,4.2
2018-12-24T01:31:09.691Z,4.27
2018-12-24T01:32:19.663Z,4.27
2018-12-24T01:33:29.383Z,4.16
2018-12-24T01:34:39.077Z,4.2
2018-12-24T01:35:48.753Z,4.18
2018-12-24T01:37:00.587Z,4.09
2018-12-24T01:38:10.411Z,4.13
2018-12-24T01:39:20.108Z,4.14
2018-12-24T01:40:30.152Z,4.2
2018-12-24T01:41:39.859Z,3.95
2018-12-24T01:42:49.810Z,3.99
2018-12-24T01:43:59.759Z,4.04
2018-12-24T01:45:09.699Z,4.06
2018-12-24T01:46:19.630Z,4.04
2018-12-24T01:47:29.570Z,4.06
2018-12-24T01:48:39.014Z,4.07
2018-12-24T01:49:48.963Z,4.1
2018-12-24T01:50:58.905Z,4.07
2018-12-24T01:52:08.848Z,4
2018-12-24T01:53:18.795Z,4.07
2018-12-24T01:54:28.736Z,4.09
2018-12-24T01:55:38.686Z,4.1
2018-12-24T01:56:48.633Z,4.02
2018-12-24T01:57:58.582Z,4.04
2018-12-24T01:59:08.538Z,4.03
2018-12-24T02:00:18.489Z,4.03
2018-12-24T02:01:28.440Z,4
2018-12-24T02:02:38.377Z,3.91
2018-12-24T02:03:48.412Z,3.92
2018-12-24T02:04:58.105Z,3.88
2018-12-24T02:06:07.967Z,3.76
2018-12-24T02:07:17.674Z,3.91
2018-12-24T02:08:27.373Z,3.88
2018-12-24T02:09:37.072Z,3.89
2018-12-24T02:10:46.751Z,3.86
2018-12-24T02:11:56.418Z,3.89
2018-12-24T02:13:06.106Z,3.85
2018-12-24T02:14:15.793Z,3.88
2018-12-24T02:15:25.738Z,3.89
2018-12-24T02:16:35.420Z,3.88
2018-12-24T02:17:45.360Z,3.89
2018-12-24T02:18:54.806Z,3.82
2018-12-24T02:20:04.744Z,3.81
2018-12-24T02:21:14.426Z,3.86
2018-12-24T02:22:23.874Z,3.78
2018-12-24T02:23:33.569Z,3.88
2018-12-24T02:24:43.487Z,3.85
2018-12-24T02:25:53.179Z,3.82
2018-12-24T02:27:02.886Z,3.77
2018-12-24T02:28:12.559Z,3.82
2018-12-24T02:29:22.498Z,3.78
2018-12-24T02:30:32.197Z,3.71
2018-12-24T02:31:42.180Z,3.81
2018-12-24T02:32:52.127Z,3.7
2018-12-24T02:34:01.820Z,3.74
2018-12-24T02:35:11.538Z,3.73
2018-12-24T02:36:21.501Z,3.85
2018-12-24T02:37:31.205Z,3.7
2018-12-24T02:38:40.889Z,3.67
2018-12-24T02:39:50.960Z,3.76
2018-12-24T02:41:00.914Z,3.73
2018-12-24T02:42:10.619Z,3.68
2018-12-24T02:43:20.062Z,3.74
2018-12-24T02:44:30.035Z,3.64
2018-12-24T02:45:39.862Z,3.73
2018-12-24T02:46:49.836Z,3.63
2018-12-24T02:47:59.533Z,3.67
2018-12-24T02:49:09.477Z,3.67
2018-12-24T02:50:19.438Z,3.67
2018-12-24T02:51:29.159Z,3.71
2018-12-24T02:52:38.920Z,3.7
2018-12-24T02:53:48.881Z,3.71
2018-12-24T02:54:58.836Z,3.67
2018-12-24T02:56:08.526Z,3.67
2018-12-24T02:57:17.975Z,3.73
2018-12-24T02:58:27.767Z,3.73
2018-12-24T02:59:37.716Z,3.84
2018-12-24T03:00:47.435Z,3.71
2018-12-24T03:01:57.388Z,3.71
2018-12-24T03:03:07.122Z,3.68
2018-12-24T03:04:16.819Z,3.7
2018-12-24T03:05:26.772Z,3.66
2018-12-24T03:06:36.481Z,3.71
2018-12-24T03:07:46.174Z,3.7
2018-12-24T03:08:56.126Z,3.67
2018-12-24T03:10:05.874Z,3.7
2018-12-24T03:11:15.853Z,3.71
2018-12-24T03:12:25.798Z,3.71
2018-12-24T03:13:35.517Z,3.68
2018-12-24T03:14:45.209Z,3.68
2018-12-24T03:15:55.220Z,3.7
2018-12-24T03:17:05.156Z,3.68
2018-12-24T03:18:15.097Z,3.73
2018-12-24T03:19:25.037Z,3.7
2018-12-24T03:20:34.983Z,3.7
2018-12-24T03:21:44.926Z,3.81
2018-12-24T03:22:54.874Z,3.82
2018-12-24T03:24:04.823Z,3.74
2018-12-24T03:25:14.799Z,3.67
2018-12-24T03:26:24.970Z,3.73
2018-12-24T03:27:34.944Z,3.7
2018-12-24T03:28:44.903Z,3.7
2018-12-24T03:29:54.961Z,3.61
2018-12-24T03:31:04.915Z,3.56
2018-12-24T03:32:14.895Z,3.49
2018-12-24T03:33:24.921Z,3.41
2018-12-24T03:34:34.875Z,3.5
2018-12-24T03:35:44.571Z,3.4
2018-12-24T03:36:54.521Z,3.36
2018-12-24T03:38:04.635Z,3.37
2018-12-24T03:39:14.603Z,3.43
2018-12-24T03:40:24.551Z,3.48
2018-12-24T03:41:34.237Z,3.48
2018-12-24T03:42:44.351Z,3.45
2018-12-24T03:43:54.286Z,3.41
2018-12-24T03:45:04.013Z,3.37
2018-12-24T03:46:13.725Z,3.45
2018-12-24T03:47:23.798Z,3.41
2018-12-24T03:48:33.495Z,3.5
2018-12-24T03:49:43.432Z,3.48
2018-12-24T03:50:53.122Z,3.49
2018-12-24T03:52:03.065Z,3.48
2018-12-24T03:53:12.742Z,3.49
2018-12-24T03:54:22.438Z,3.41
2018-12-24T03:55:32.404Z,3.45
2018-12-24T03:56:42.341Z,3.46
2018-12-24T03:57:52.049Z,3.37
2018-12-24T03:59:01.499Z,3.37
2018-12-24T04:00:11.435Z,3.37
2018-12-24T04:01:21.393Z,3.33
2018-12-24T04:02:31.092Z,3.4
2018-12-24T04:03:41.037Z,3.5
2018-12-24T04:04:51.004Z,3.45
2018-12-24T04:06:00.965Z,3.45
2018-12-24T04:07:10.659Z,3.49
2018-12-24T04:08:20.620Z,3.49
2018-12-24T04:09:30.566Z,3.56
2018-12-24T04:10:40.350Z,3.46
2018-12-24T04:11:50.040Z,3.53
2018-12-24T04:12:59.980Z,3.5
2018-12-24T04:14:09.954Z,3.45
2018-12-24T04:15:19.889Z,3.46
2018-12-24T04:16:29.841Z,3.49
2018-12-24T04:17:39.522Z,3.48
2018-12-24T04:18:49.479Z,3.46
2018-12-24T04:19:59.431Z,3.41
2018-12-24T04:21:08.908Z,3.37
2018-12-24T04:22:18.853Z,3.33
2018-12-24T04:23:28.547Z,3.48
2018-12-24T04:24:38.239Z,3.36
2018-12-24T04:25:48.183Z,3.3
2018-12-24T04:26:58.131Z,3.21
2018-12-24T04:28:08.098Z,3.24
2018-12-24T04:29:18.040Z,3.11
2018-12-24T04:30:27.730Z,3.09
2018-12-24T04:31:37.573Z,3
2018-12-24T04:32:47.539Z,2.98
2018-12-24T04:33:57.486Z,2.85
2018-12-24T04:35:07.427Z,2.82
2018-12-24T04:36:17.365Z,2.75
2018-12-24T04:37:26.806Z,2.79
2018-12-24T04:38:36.932Z,2.85
2018-12-24T04:39:46.875Z,2.72
2018-12-24T04:40:56.844Z,2.72
2018-12-24T04:42:06.545Z,2.79
2018-12-24T04:43:16.488Z,2.79
2018-12-24T04:44:26.185Z,2.64
2018-12-24T04:45:35.628Z,2.62
2018-12-24T04:46:45.580Z,2.58
2018-12-24T04:47:55.276Z,2.58
2018-12-24T04:49:05.231Z,2.58
2018-12-24T04:50:15.180Z,2.55
2018-12-24T04:51:25.110Z,2.58
2018-12-24T04:52:35.051Z,2.5
2018-12-24T04:53:44.999Z,2.51
2018-12-24T04:54:54.952Z,2.5
2018-12-24T04:56:04.886Z,2.52
2018-12-24T04:57:14.582Z,2.5
2018-12-24T04:58:24.518Z,2.47
2018-12-24T04:59:34.228Z,2.47
2018-12-24T05:00:43.925Z,2.46
2018-12-24T05:01:53.872Z,2.44
2018-12-24T05:03:03.554Z,2.52
2018-12-24T05:04:13.505Z,2.51
2018-12-24T05:05:23.234Z,2.51
2018-12-24T05:06:33.191Z,2.51
2018-12-24T05:07:42.883Z,2.51
2018-12-24T05:08:52.816Z,2.58
2018-12-24T05:10:02.524Z,2.51
2018-12-24T05:11:12.210Z,2.52
2018-12-24T05:12:21.888Z,2.62
2018-12-24T05:13:40.635Z,2.58
2018-12-24T05:14:50.749Z,2.5
2018-12-24T05:16:00.684Z,2.5
2018-12-24T05:17:10.632Z,2.51
2018-12-24T05:18:20.128Z,2.61
2018-12-24T05:19:29.815Z,2.47
2018-12-24T05:20:39.254Z,2.5
2018-12-24T05:21:49.191Z,2.5
2018-12-24T05:22:59.147Z,2.47
2018-12-24T05:24:08.832Z,2.5
2018-12-24T05:25:18.274Z,2.4
2018-12-24T05:26:27.972Z,2.44
2018-12-24T05:27:37.664Z,2.39
2018-12-24T05:28:47.347Z,2.5
2018-12-24T05:29:57.279Z,2.39
2018-12-24T05:31:07.230Z,2.4
2018-12-24T05:32:16.921Z,2.43
2018-12-24T05:33:26.866Z,2.41
2018-12-24T05:34:36.826Z,2.4
2018-12-24T05:35:46.042Z,2.36
2018-12-24T05:36:56.012Z,2.44
2018-12-24T05:38:05.699Z,2.4
2018-12-24T05:39:15.630Z,2.41
2018-12-24T05:40:25.572Z,2.46
2018-12-24T05:41:35.497Z,2.39
2018-12-24T05:42:45.283Z,2.43
2018-12-24T05:43:55.232Z,2.44
2018-12-24T05:45:05.031Z,2.43
2018-12-24T05:46:14.746Z,2.46
2018-12-24T05:47:24.677Z,2.4
2018-12-24T05:48:34.376Z,2.37
2018-12-24T05:49:44.326Z,2.4
2018-12-24T05:50:53.766Z,2.37
2018-12-24T05:52:03.554Z,2.4
2018-12-24T05:53:13.251Z,2.39
2018-12-24T05:54:23.183Z,2.39
2018-12-24T05:55:32.858Z,2.41
2018-12-24T05:56:42.297Z,2.37
2018-12-24T05:57:51.738Z,2.4
2018-12-24T05:59:01.682Z,2.43
2018-12-24T06:00:11.605Z,2.39
2018-12-24T06:01:21.544Z,2.44
2018-12-24T06:02:31.488Z,2.4
2018-12-24T06:03:40.916Z,2.54
2018-12-24T06:04:50.625Z,2.51
2018-12-24T06:06:00.736Z,2.46
2018-12-24T06:07:10.460Z,2.43
2018-12-24T06:08:20.162Z,2.34
2018-12-24T06:09:29.848Z,2.37
2018-12-24T06:10:39.532Z,2.32
2018-12-24T06:11:49.233Z,2.26
2018-12-24T06:13:01.458Z,2.3
2018-12-24T06:14:11.160Z,2.3
2018-12-24T06:15:21.112Z,2.3
2018-12-24T06:16:30.792Z,2.15
2018-12-24T06:17:40.484Z,2.19
2018-12-24T06:18:50.437Z,2.04
2018-12-24T06:20:00.389Z,2.04
2018-12-24T06:21:09.842Z,2
2018-12-24T06:22:19.875Z,2
2018-12-24T06:23:29.816Z,1.97
2018-12-24T06:24:39.501Z,1.93
2018-12-24T06:25:49.447Z,1.97
2018-12-24T06:27:00.779Z,1.97
2018-12-24T06:28:10.721Z,1.93
2018-12-24T06:29:20.662Z,1.89
2018-12-24T06:30:30.616Z,1.92
2018-12-24T06:31:40.654Z,1.79
2018-12-24T06:32:50.584Z,1.82
2018-12-24T06:34:00.276Z,1.93
2018-12-24T06:35:09.998Z,1.81
2018-12-24T06:36:19.942Z,1.86
2018-12-24T06:37:29.878Z,1.79
2018-12-24T06:38:39.575Z,1.79
2018-12-24T06:39:49.258Z,1.84
2018-12-24T06:40:59.194Z,1.75
2018-12-24T06:42:08.885Z,1.82
2018-12-24T06:43:18.588Z,1.79
2018-12-24T06:44:28.526Z,1.79
2018-12-24T06:45:38.460Z,1.82
2018-12-24T06:46:47.905Z,1.84
2018-12-24T06:47:57.843Z,1.81
2018-12-24T06:49:07.525Z,1.81
2018-12-24T06:50:18.280Z,1.89
2018-12-24T06:51:28.050Z,1.81
2018-12-24T06:52:37.979Z,1.85
2018-12-24T06:53:47.415Z,1.82
2018-12-24T06:54:57.354Z,1.81
2018-12-24T06:56:06.789Z,1.78
2018-12-24T06:57:16.481Z,1.82
2018-12-24T06:58:26.422Z,1.84
2018-12-24T06:59:36.358Z,1.84
2018-12-24T07:00:46.280Z,1.85
2018-12-24T07:01:56.233Z,1.86
2018-12-24T07:03:05.926Z,1.76
2018-12-24T07:04:15.869Z,1.75
2018-12-24T07:05:25.557Z,1.88
2018-12-24T07:06:34.993Z,1.85
2018-12-24T07:07:44.429Z,1.89
2018-12-24T07:08:54.360Z,1.98
2018-12-24T07:10:04.301Z,1.92
2018-12-24T07:11:14.006Z,1.84
2018-12-24T07:12:23.948Z,1.82
2018-12-24T07:13:35.234Z,1.79
2018-12-24T07:14:45.154Z,1.82
2018-12-24T07:15:54.866Z,1.93
2018-12-24T07:17:04.541Z,1.81
2018-12-24T07:18:14.484Z,1.81
2018-12-24T07:19:24.174Z,1.84
2018-12-24T07:20:34.116Z,1.85
2018-12-24T07:21:43.570Z,1.79
2018-12-24T07:22:53.510Z,1.78
2018-12-24T07:24:03.457Z,1.84
2018-12-24T07:25:13.494Z,1.84
2018-12-24T07:26:23.200Z,1.86
2018-12-24T07:27:32.908Z,1.76
2018-12-24T07:28:42.844Z,1.81
2018-12-24T07:29:52.539Z,1.79
2018-12-24T07:31:02.623Z,1.82
2018-12-24T07:32:12.063Z,1.79
2018-12-24T07:33:22.012Z,1.82
2018-12-24T07:34:37.416Z,1.81
2018-12-24T07:35:47.377Z,1.86
2018-12-24T07:36:57.058Z,1.86
2018-12-24T07:38:07.936Z,1.82
2018-12-24T07:39:17.887Z,1.78
2018-12-24T07:40:27.914Z,1.84
2018-12-24T07:41:37.880Z,1.75
2018-12-24T07:42:47.839Z,1.75
2018-12-24T07:43:57.785Z,1.71
2018-12-24T07:45:07.721Z,1.79
2018-12-24T07:46:17.421Z,1.82
2018-12-24T07:47:27.114Z,1.76
2018-12-24T07:48:37.055Z,1.81
2018-12-24T07:49:46.742Z,1.74
2018-12-24T07:50:56.688Z,1.74
2018-12-24T07:52:06.390Z,1.64
2018-12-24T07:53:15.840Z,1.7
2018-12-24T07:54:25.280Z,1.64
2018-12-24T07:55:35.234Z,1.68
2018-12-24T07:56:45.185Z,1.7
2018-12-24T07:57:54.959Z,1.63
2018-12-24T07:59:04.895Z,1.64
2018-12-24T08:00:14.358Z,1.61
2018-12-24T08:01:24.310Z,1.6
2018-12-24T08:02:34.234Z,1.57
2018-12-24T08:03:43.994Z,1.63
2018-12-24T08:04:54.178Z,1.6
2018-12-24T08:06:03.606Z,1.58
2018-12-24T08:07:13.554Z,1.57
2018-12-24T08:08:23.260Z,1.58
2018-12-24T08:09:33.203Z,1.63
2018-12-24T08:10:43.139Z,1.57
2018-12-24T08:11:52.823Z,1.58
2018-12-24T08:13:02.760Z,1.63
2018-12-24T08:14:12.468Z,1.57
2018-12-24T08:15:22.412Z,1.56
2018-12-24T08:16:32.356Z,1.57
2018-12-24T08:17:42.287Z,1.53
2018-12-24T08:18:52.220Z,1.48
2018-12-24T08:20:01.643Z,1.53
2018-12-24T08:21:11.602Z,1.57
2018-12-24T08:22:21.307Z,1.46
2018-12-24T08:23:31.242Z,1.52
2018-12-24T08:24:40.938Z,1.5
2018-12-24T08:25:50.887Z,1.52
2018-12-24T08:27:00.832Z,1.6
2018-12-24T08:28:10.778Z,1.49
2018-12-24T08:29:20.463Z,1.42
2018-12-24T08:30:30.407Z,1.42
2018-12-24T08:31:40.373Z,1.48
2018-12-24T08:32:50.313Z,1.52
2018-12-24T08:33:59.498Z,1.48
2018-12-24T08:35:09.436Z,1.48
2018-12-24T08:36:19.382Z,1.52
2018-12-24T08:37:29.348Z,1.46
2018-12-24T08:38:39.299Z,1.36
2018-12-24T08:39:48.999Z,1.32
2018-12-24T08:40:58.951Z,1.31
2018-12-24T08:42:08.669Z,1.28
2018-12-24T08:43:18.357Z,1.27
2018-12-24T08:44:28.067Z,1.27
2018-12-24T08:45:37.782Z,1.28
2018-12-24T08:46:47.493Z,1.32
2018-12-24T08:47:57.427Z,1.36
2018-12-24T08:49:07.107Z,1.31
2018-12-24T08:50:16.863Z,1.27
2018-12-24T08:51:26.914Z,1.27
2018-12-24T08:52:36.847Z,1.32
2018-12-24T08:53:46.790Z,1.22
2018-12-24T08:54:56.495Z,1.32
2018-12-24T08:56:06.447Z,1.28
2018-12-24T08:57:15.885Z,1.3
2018-12-24T08:58:25.575Z,1.21
2018-12-24T08:59:35.633Z,1.27
2018-12-24T09:00:45.575Z,1.21
2018-12-24T09:01:55.266Z,1.24
2018-12-24T09:03:05.525Z,1.22
2018-12-24T09:04:15.219Z,1.24
2018-12-24T09:05:25.176Z,1.16
2018-12-24T09:06:35.107Z,1.1
2018-12-24T09:07:44.808Z,1.16
2018-12-24T09:08:54.250Z,1.06
2018-12-24T09:10:04.193Z,1.07
2018-12-24T09:11:14.166Z,1.09
2018-12-24T09:12:24.082Z,1.1
2018-12-24T09:13:34.022Z,1.09
2018-12-24T09:14:50.157Z,1.13
2018-12-24T09:16:00.275Z,1.07
2018-12-24T09:17:10.214Z,1.14
2018-12-24T09:18:19.912Z,1.13
2018-12-24T09:19:29.614Z,1.13
2018-12-24T09:20:39.578Z,1.1
2018-12-24T09:21:57.802Z,1.13
2018-12-24T09:23:07.749Z,1.13
2018-12-24T09:24:17.432Z,1.16
2018-12-24T09:25:27.228Z,1.06
2018-12-24T09:26:36.913Z,0.99
2018-12-24T09:27:46.849Z,1.06
2018-12-24T09:28:56.657Z,1.06
2018-12-24T09:30:06.666Z,1.02
2018-12-24T09:31:16.597Z,1.06
2018-12-24T09:32:26.541Z,1.07
2018-12-24T09:33:36.229Z,1.07
2018-12-24T09:34:45.919Z,1.06
2018-12-24T09:35:56.127Z,1.07
2018-12-24T09:37:05.802Z,1.09
2018-12-24T09:38:15.756Z,1.1
2018-12-24T09:39:25.439Z,1.12
2018-12-24T09:40:35.392Z,1.09
2018-12-24T09:41:45.344Z,1.13
2018-12-24T09:42:56.644Z,1.12
2018-12-24T09:44:06.594Z,1.12
2018-12-24T09:45:16.540Z,1.18
2018-12-24T09:46:25.981Z,1.14
2018-12-24T09:47:35.416Z,1.21
2018-12-24T09:48:45.095Z,1.22
2018-12-24T09:49:54.535Z,1.13
2018-12-24T09:51:04.233Z,1.14
2018-12-24T09:52:14.169Z,1.12
2018-12-24T09:53:24.214Z,1.13
2018-12-24T09:54:34.216Z,1.14
2018-12-24T09:55:44.173Z,1.22
2018-12-24T09:56:54.105Z,1.18
2018-12-24T09:58:03.794Z,1.22
2018-12-24T09:59:13.757Z,1.24
2018-12-24T10:00:23.699Z,1.28
2018-12-24T10:01:33.642Z,1.3
2018-12-24T10:02:43.596Z,1.28
2018-12-24T10:03:53.541Z,1.27
2018-12-24T10:05:10.275Z,1.21
2018-12-24T10:06:19.698Z,1.24
2018-12-24T10:07:29.377Z,1.18
2018-12-24T10:08:39.308Z,1.25
2018-12-24T10:09:48.997Z,1.24
2018-12-24T10:10:58.676Z,1.31
2018-12-24T10:12:08.636Z,1.31
2018-12-24T10:13:18.571Z,1.34
2018-12-24T10:14:28.609Z,1.43
2018-12-24T10:15:38.310Z,1.4
2018-12-24T10:16:49.960Z,1.39
2018-12-24T10:17:59.904Z,1.46
2018-12-24T10:19:09.857Z,1.45
2018-12-24T10:20:19.568Z,1.49
2018-12-24T10:21:29.506Z,1.52
2018-12-24T10:22:38.950Z,1.43
2018-12-24T10:23:48.888Z,1.46
2018-12-24T10:24:58.838Z,1.5
2018-12-24T10:26:08.787Z,1.43
2018-12-24T10:27:18.596Z,1.5
2018-12-24T10:28:28.552Z,1.43
2018-12-24T10:29:38.593Z,1.45
2018-12-24T10:30:48.284Z,1.45
2018-12-24T10:31:57.981Z,1.49
2018-12-24T10:33:08.010Z,1.49
2018-12-24T10:34:17.957Z,1.5
2018-12-24T10:35:27.638Z,1.43
2018-12-24T10:36:37.088Z,1.52
2018-12-24T10:37:46.780Z,1.52
2018-12-24T10:38:56.729Z,1.53
2018-12-24T10:40:06.421Z,1.61
2018-12-24T10:41:16.585Z,1.58
2018-12-24T10:42:26.525Z,1.52
2018-12-24T10:43:36.557Z,1.53
2018-12-24T10:44:46.000Z,1.45
2018-12-24T10:45:55.947Z,1.46
2018-12-24T10:47:05.892Z,1.46
2018-12-24T10:48:15.573Z,1.46
2018-12-24T10:49:25.295Z,1.4
2018-12-24T10:50:35.281Z,1.43
2018-12-24T10:51:45.231Z,1.46
2018-12-24T10:52:55.173Z,1.38
2018-12-24T10:54:05.112Z,1.4
2018-12-24T10:55:15.048Z,1.43
2018-12-24T10:56:24.489Z,1.4
2018-12-24T10:57:34.444Z,1.48
2018-12-24T10:58:44.139Z,1.5
2018-12-24T10:59:53.826Z,1.46
2018-12-24T11:01:03.784Z,1.43
2018-12-24T11:02:13.486Z,1.5
2018-12-24T11:03:23.432Z,1.48
2018-12-24T11:04:33.384Z,1.42
2018-12-24T11:05:43.065Z,1.45
2018-12-24T11:06:53.005Z,1.52
2018-12-24T11:08:03.047Z,1.43
2018-12-24T11:09:12.488Z,1.32
2018-12-24T11:10:22.170Z,1.49
2018-12-24T11:11:32.132Z,1.46
2018-12-24T11:12:41.845Z,1.38
2018-12-24T11:13:51.790Z,1.4
2018-12-24T11:15:01.228Z,1.43
2018-12-24T11:16:11.245Z,1.34
2018-12-24T11:17:21.194Z,1.38
2018-12-24T11:18:31.132Z,1.36
2018-12-24T11:19:40.816Z,1.45
2018-12-24T11:20:50.750Z,1.4
2018-12-24T11:22:00.925Z,1.42
2018-12-24T11:23:10.624Z,1.38
2018-12-24T11:24:20.315Z,1.38
2018-12-24T11:25:30.250Z,1.36
2018-12-24T11:26:39.955Z,1.43
2018-12-24T11:27:49.754Z,1.36
2018-12-24T11:28:59.453Z,1.43
2018-12-24T11:30:09.163Z,1.39
2018-12-24T11:31:18.857Z,1.39
2018-12-24T11:32:28.558Z,1.49
2018-12-24T11:33:38.245Z,1.42
2018-12-24T11:34:47.945Z,1.36
2018-12-24T11:35:58.503Z,1.32
2018-12-24T11:37:10.333Z,1.34
2018-12-24T11:38:20.355Z,1.31
2018-12-24T11:39:30.036Z,1.24
2018-12-24T11:40:39.475Z,1.31
2018-12-24T11:41:49.432Z,1.38
2018-12-24T11:42:59.387Z,1.36
2018-12-24T11:44:09.073Z,1.3
2018-12-24T11:45:19.195Z,1.3
2018-12-24T11:46:29.135Z,1.32
2018-12-24T11:47:39.083Z,1.3
2018-12-24T11:48:48.774Z,1.27
2018-12-24T11:49:58.714Z,1.27
2018-12-24T11:51:08.649Z,1.32
2018-12-24T11:52:18.339Z,1.36
2018-12-24T11:53:28.301Z,1.36
2018-12-24T11:54:38.360Z,1.38
2018-12-24T11:55:47.799Z,1.32
2018-12-24T11:56:57.495Z,1.38
2018-12-24T11:58:13.179Z,1.4
2018-12-24T11:59:24.404Z,1.4
2018-12-24T12:00:34.345Z,1.31
2018-12-24T12:01:44.056Z,1.45
2018-12-24T12:02:53.999Z,1.34
2018-12-24T12:04:03.966Z,1.43
2018-12-24T12:05:13.911Z,1.45
2018-12-24T12:06:24.384Z,1.45
2018-12-24T12:07:34.328Z,1.43
2018-12-24T12:08:44.261Z,1.4
2018-12-24T12:09:53.973Z,1.45
2018-12-24T12:11:04.080Z,1.4
2018-12-24T12:12:14.025Z,1.31
2018-12-24T12:13:23.973Z,1.46
2018-12-24T12:14:33.919Z,1.38
2018-12-24T12:15:47.803Z,1.48
2018-12-24T12:16:57.501Z,1.34
2018-12-24T12:18:07.195Z,1.38
2018-12-24T12:19:16.896Z,1.39
2018-12-24T12:20:27.729Z,1.43
2018-12-24T12:21:37.662Z,1.38
2018-12-24T12:22:47.602Z,1.36
2018-12-24T12:23:57.539Z,1.34
2018-12-24T12:25:07.485Z,1.48
2018-12-24T12:26:17.439Z,1.48
2018-12-24T12:27:27.391Z,1.5
2018-12-24T12:28:37.090Z,1.42
2018-12-24T12:29:47.023Z,1.4
2018-12-24T12:30:56.451Z,1.43
2018-12-24T12:32:06.207Z,1.43
2018-12-24T12:33:15.917Z,1.39
2018-12-24T12:34:25.873Z,1.4
2018-12-24T12:35:35.814Z,1.46
2018-12-24T12:36:45.515Z,1.42
2018-12-24T12:37:55.671Z,1.46
2018-12-24T12:39:04.853Z,1.48
2018-12-24T12:40:14.531Z,1.48
2018-12-24T12:41:24.489Z,1.48
2018-12-24T12:42:34.184Z,1.56
2018-12-24T12:43:43.854Z,1.46
2018-12-24T12:44:53.647Z,1.48
2018-12-24T12:46:03.592Z,1.56
2018-12-24T12:47:13.525Z,1.49
2018-12-24T12:48:23.857Z,1.56
2018-12-24T12:49:33.811Z,1.52
2018-12-24T12:50:43.511Z,1.58
2018-12-24T12:51:53.479Z,1.57
2018-12-24T12:53:03.430Z,1.57
2018-12-24T12:54:13.369Z,1.61
2018-12-24T12:55:23.317Z,1.64
2018-12-24T12:56:32.842Z,1.64
2018-12-24T12:57:42.553Z,1.64
2018-12-24T12:58:52.502Z,1.63
2018-12-24T13:00:02.212Z,1.67
2018-12-24T13:01:11.899Z,1.67
2018-12-24T13:02:23.826Z,1.71
2018-12-24T13:03:33.264Z,1.76
2018-12-24T13:04:43.222Z,1.76
2018-12-24T13:05:53.156Z,1.81
2018-12-24T13:07:02.927Z,1.68
2018-12-24T13:08:12.613Z,1.66
2018-12-24T13:09:22.558Z,1.68
2018-12-24T13:10:32.492Z,1.7
2018-12-24T13:11:42.547Z,1.75
2018-12-24T13:12:52.255Z,1.66
2018-12-24T13:14:02.199Z,1.78
2018-12-24T13:15:12.143Z,1.79
2018-12-24T13:16:21.849Z,1.75
2018-12-24T13:17:31.809Z,1.81
2018-12-24T13:18:41.792Z,1.85
2018-12-24T13:19:51.483Z,1.75
2018-12-24T13:21:01.427Z,1.84
2018-12-24T13:22:11.383Z,1.79
2018-12-24T13:23:21.337Z,1.74
2018-12-24T13:24:31.045Z,1.75
2018-12-24T13:25:40.759Z,1.81
2018-12-24T13:26:50.820Z,1.71
2018-12-24T13:28:00.528Z,1.81
2018-12-24T13:29:10.505Z,1.82
2018-12-24T13:30:20.197Z,1.79
2018-12-24T13:31:30.136Z,1.81
2018-12-24T13:32:40.100Z,1.81
2018-12-24T13:33:50.030Z,1.76
2018-12-24T13:34:59.710Z,1.78
2018-12-24T13:36:09.663Z,1.78
2018-12-24T13:37:19.616Z,1.79
2018-12-24T13:38:29.066Z,1.89
2018-12-24T13:39:39.030Z,1.81
2018-12-24T13:40:48.744Z,1.86
2018-12-24T13:41:58.706Z,1.95
2018-12-24T13:43:08.649Z,1.89
2018-12-24T13:44:18.340Z,1.86
2018-12-24T13:45:28.041Z,1.85
2018-12-24T13:46:37.988Z,1.79
2018-12-24T13:47:47.926Z,1.79
2018-12-24T13:48:57.876Z,1.81
2018-12-24T13:50:07.835Z,1.88
2018-12-24T13:51:17.785Z,1.93
2018-12-24T13:52:27.483Z,1.85
2018-12-24T13:53:44.381Z,1.89
2018-12-24T13:54:54.081Z,1.85
2018-12-24T13:56:05.057Z,1.86
2018-12-24T13:57:15.007Z,1.89
2018-12-24T13:58:24.960Z,1.88
2018-12-24T13:59:34.665Z,1.86
2018-12-24T14:00:44.352Z,1.88
2018-12-24T14:01:54.037Z,1.93
2018-12-24T14:03:03.732Z,1.88
2018-12-24T14:04:13.679Z,1.97
2018-12-24T14:05:23.368Z,1.89
2018-12-24T14:06:32.570Z,1.93
2018-12-24T14:07:42.500Z,1.89
2018-12-24T14:08:52.204Z,1.88
2018-12-24T14:10:01.884Z,1.93
2018-12-24T14:11:11.910Z,1.84
2018-12-24T14:12:21.860Z,1.92
2018-12-24T14:13:31.799Z,1.98
2018-12-24T14:14:41.235Z,1.98
2018-12-24T14:15:51.201Z,1.88
2018-12-24T14:17:01.163Z,1.93
2018-12-24T14:18:11.105Z,1.95
2018-12-24T14:19:21.045Z,1.92
2018-12-24T14:20:30.990Z,1.93
2018-12-24T14:21:42.883Z,1.92
2018-12-24T14:22:52.579Z,1.89
2018-12-24T14:24:02.025Z,1.95
2018-12-24T14:25:11.965Z,1.97
2018-12-24T14:26:21.662Z,1.95
2018-12-24T14:27:31.335Z,1.92
2018-12-24T14:28:41.145Z,1.97
2018-12-24T14:29:50.843Z,2.01
2018-12-24T14:31:00.806Z,1.93
2018-12-24T14:32:10.745Z,1.95
2018-12-24T14:33:20.433Z,1.93
2018-12-24T14:34:30.123Z,2
2018-12-24T14:35:39.826Z,1.93
2018-12-24T14:36:49.761Z,1.95
2018-12-24T14:37:59.817Z,2
2018-12-24T14:39:09.533Z,1.89
2018-12-24T14:40:19.492Z,2.05
2018-12-24T14:41:29.431Z,1.92
2018-12-24T14:42:39.371Z,2.01
2018-12-24T14:43:49.060Z,2.07
2018-12-24T14:44:58.995Z,2.04
2018-12-24T14:46:08.924Z,2.05
2018-12-24T14:47:18.611Z,2
2018-12-24T14:48:28.310Z,2.01
2018-12-24T14:49:37.761Z,2.04
2018-12-24T14:50:52.083Z,2.04
2018-12-24T14:52:01.561Z,2.07
2018-12-24T14:53:11.523Z,1.88
2018-12-24T14:54:21.464Z,2.04
2018-12-24T14:55:31.157Z,2.01
2018-12-24T14:56:41.096Z,2.03
2018-12-24T14:57:50.537Z,2.08
2018-12-24T14:59:00.221Z,1.92
2018-12-24T15:00:10.235Z,2.01
2018-12-24T15:01:19.929Z,2.01
2018-12-24T15:02:29.637Z,2.05
2018-12-24T15:03:39.615Z,2.05
2018-12-24T15:04:50.041Z,2.03
2018-12-24T15:06:00.061Z,2.07
2018-12-24T15:07:09.496Z,2.05
2018-12-24T15:08:19.278Z,2.04
2018-12-24T15:09:29.221Z,2.05
2018-12-24T15:10:39.007Z,2.07
2018-12-24T15:11:50.332Z,2.07
2018-12-24T15:13:00.281Z,2.04
2018-12-24T15:14:09.809Z,2.05
2018-12-24T15:15:19.524Z,2.03
2018-12-24T15:16:37.136Z,2.08
2018-12-24T15:17:47.163Z,2.03
2018-12-24T15:18:57.126Z,2.04
2018-12-24T15:20:07.075Z,2.07
2018-12-24T15:21:17.012Z,2.03
2018-12-24T15:22:26.702Z,2.03
2018-12-24T15:23:36.395Z,2.04
2018-12-24T15:24:46.346Z,2.01
2018-12-24T15:25:56.126Z,2.01
2018-12-24T15:27:05.806Z,1.98
2018-12-24T15:28:15.741Z,2.08
2018-12-24T15:29:25.435Z,2.03
2018-12-24T15:30:35.151Z,1.88
2018-12-24T15:31:45.092Z,1.98
2018-12-24T15:32:55.025Z,1.97
2018-12-24T15:34:04.260Z,2.03
2018-12-24T15:35:14.209Z,2